Bei Facebook empfehlenBei Twitter postenGoogle plusPinterest

Das Wetter im Erzgebirge am 03.07.2015

Wetter und Klima am 03.07.2015 Holzhau im Erzgebirge (630m ü.NN)
Letzte gemessene Temperatur und Uhrzeit der Messung23:45:00 Uhr18.80 °C
Temperatur (Maximum / Höchstwert) und Uhrzeit der Messung14:15:00 Uhr31.80 °C
Temperatur (Minimum / Tiefstwert) und Uhrzeit der Messung01:45:0014.80 °C
Errechneter Absolutwert der Temperaturschwankungen zwischen Tmin und Tmax des Tages17.00 K
Errechnete Tagesmitteltemperatur23.69792 °C
Gesamt - Niederschlag des Tages (in flüssiger Form)0.00 Liter / m²
Luftdruck (Maximum / Höchstwert) und Zeitpunkt der Messung12:15:00 Uhr1025.40 hPa
Luftdruck (Minimum / Tiefstwert) und Zeitpunkt der Messung04:15:00 Uhr1023.50 hPa
Errechneter Absolutwert der Luftdruckschwankungen des Tages1.90 hPa
Höchste gemessene Windgeschwindigkeit und Uhrzeit der Messung16:45:00 Uhr14.04 km/h
Errechnete Windhäufigkeit in Relation zu den Messwerten des Tages16.66667 %
Niedrigste Windkühle (Windchill) und Zeitpunkt der Messung01:45:00 Uhr14.80 °C
Taupunkt (Maximum / Höchstwert) und Uhrzeit der Messung17:15:00 Uhr17.90 °C
Taupunkt (Minimum / Tiefstwert) und Uhrzeit der Messung01:45:009.80 °C
Anzahl der automatisch eingelesenen Messwerte 96

Detaillierte Wetter- und Klima- Messwerte für den 03.07.2015 in Holzhau im Erzgebirge (630m ü.NN)
ZeitTemperaturLuftdruckRel. LuftfeuchteWindWindrichtungWindchillTaupunktNiederschlag l/m²
23:45:0018.80 °C1024.50 hPa75.00 %14.30 °C 
23:30:0018.90 °C1024.50 hPa74.00 %14.20 °C 
23:15:0019.10 °C1024.60 hPa74.00 %14.40 °C 
23:00:0019.50 °C1024.60 hPa73.00 %14.50 °C 
22:45:0019.80 °C1024.40 hPa72.00 %14.60 °C 
22:30:0020.30 °C1024.20 hPa71.00 %14.90 °C 
22:15:0020.80 °C1024.30 hPa70.00 %15.10 °C 
22:00:0021.30 °C1024.30 hPa69.00 %15.40 °C 
21:45:0021.80 °C1024.50 hPa68.00 %15.60 °C 
21:30:0022.20 °C1024.20 hPa66.00 %15.50 °C 
21:15:0022.90 °C1024.30 hPa64.00 %15.70 °C 
21:00:0023.80 °C1024.30 hPa61.00 %15.80 °C 
20:45:0024.90 °C1024.20 hPa58.00 %16.10 °C 
20:30:0025.90 °C1024.30 hPa56.00 %16.50 °C 
20:15:0026.90 °C1024.10 hPa53.00 %16.50 °C 
20:00:0027.70 °C1024.10 hPa50.00 %16.30 °C 
19:45:0028.40 °C1024.00 hPa49.00 %16.70 °C 
19:30:0028.80 °C1024.00 hPa49.00 %17.00 °C 
19:15:0029.10 °C1024.00 hPa47.00 %16.60 °C 
19:00:0029.40 °C1023.90 hPa47.00 %16.90 °C 
18:45:0029.60 °C1024.10 hPa47.00 %5.40 km/hSW32.00 °C17.10 °C 
18:30:0029.80 °C1024.20 hPa46.00 %16.90 °C 
18:15:0029.90 °C1024.20 hPa46.00 %17.00 °C 
18:00:0030.20 °C1024.10 hPa46.00 %5.04 km/hSW32.70 °C17.30 °C 
17:45:0030.20 °C1024.20 hPa46.00 %17.30 °C 
17:30:0030.70 °C1024.20 hPa46.00 %17.70 °C 
17:15:0030.90 °C1024.30 hPa46.00 %17.90 °C 
17:00:0030.90 °C1024.20 hPa45.00 %6.12 km/hSW33.50 °C17.60 °C 
16:45:0031.20 °C1024.20 hPa44.00 %14.04 km/hSSW34.00 °C17.50 °C 
16:30:0031.50 °C1024.30 hPa44.00 %3.60 km/hSW31.50 °C17.80 °C 
16:15:0031.00 °C1024.70 hPa43.00 %17.00 °C 
16:00:0031.00 °C1024.50 hPa43.00 %17.00 °C 
15:45:0031.10 °C1024.40 hPa43.00 %17.00 °C 
15:30:0031.60 °C1024.50 hPa43.00 %17.50 °C 
15:15:0031.50 °C1024.50 hPa43.00 %7.56 km/hSSW34.20 °C17.40 °C 
15:00:0031.30 °C1024.50 hPa43.00 %2.52 km/hO31.30 °C17.20 °C 
14:45:0031.10 °C1024.50 hPa43.00 %7.56 km/hSSW33.80 °C17.00 °C 
14:30:0031.10 °C1024.70 hPa43.00 %17.00 °C 
14:15:0031.80 °C1024.80 hPa42.00 %4.32 km/hOSO31.80 °C17.30 °C 
14:00:0031.60 °C1024.60 hPa42.00 %17.10 °C 
13:45:0031.20 °C1024.60 hPa41.00 %5.76 km/hSW33.80 °C16.40 °C 
13:30:0031.40 °C1024.90 hPa43.00 %6.12 km/hSSW34.10 °C17.30 °C 
13:15:0031.10 °C1025.00 hPa44.00 %17.40 °C 
13:00:0030.80 °C1025.10 hPa43.00 %16.80 °C 
12:45:0030.30 °C1025.00 hPa45.00 %17.00 °C 
12:30:0029.60 °C1025.10 hPa44.00 %16.10 °C 
12:15:0029.00 °C1025.40 hPa45.00 %15.90 °C 
12:00:0028.50 °C1025.20 hPa47.00 %16.10 °C 
11:45:0028.30 °C1025.10 hPa46.00 %15.60 °C 
11:30:0027.90 °C1025.00 hPa48.00 %3.60 km/hSW27.90 °C15.90 °C 
11:15:0027.90 °C1025.00 hPa47.00 %15.50 °C 
11:00:0027.80 °C1024.90 hPa48.00 %15.80 °C 
10:45:0027.30 °C1024.80 hPa49.00 %3.24 km/hSW27.30 °C15.60 °C 
10:30:0026.90 °C1024.80 hPa48.00 %15.00 °C 
10:15:0026.70 °C1024.80 hPa49.00 %15.10 °C 
10:00:0026.30 °C1024.60 hPa49.00 %12.60 km/hSW28.10 °C14.70 °C 
09:45:0025.60 °C1024.70 hPa50.00 %14.40 °C 
09:30:0025.80 °C1024.60 hPa49.00 %14.30 °C 
09:15:0025.30 °C1024.70 hPa49.00 %13.80 °C 
09:00:0025.30 °C1024.60 hPa49.00 %13.80 °C 
08:45:0024.70 °C1024.40 hPa50.00 %13.60 °C 
08:30:0024.80 °C1024.60 hPa50.00 %13.70 °C 
08:15:0024.50 °C1024.40 hPa52.00 %14.00 °C 
08:00:0024.70 °C1024.40 hPa52.00 %14.20 °C 
07:45:0024.00 °C1024.40 hPa54.00 %14.10 °C 
07:30:0022.30 °C1024.20 hPa59.00 %13.90 °C 
07:15:0019.60 °C1024.50 hPa67.00 %13.30 °C 
07:00:0017.80 °C1024.30 hPa68.00 %11.80 °C 
06:45:0017.30 °C1024.10 hPa69.00 %11.60 °C 
06:30:0016.90 °C1024.10 hPa70.00 %11.40 °C 
06:15:0016.40 °C1024.00 hPa71.00 %11.10 °C 
06:00:0016.00 °C1024.10 hPa72.00 %11.00 °C 
05:45:0015.80 °C1024.00 hPa72.00 %10.80 °C 
05:30:0015.60 °C1024.00 hPa73.00 %10.80 °C 
05:15:0015.30 °C1023.90 hPa73.00 %10.50 °C 
05:00:0015.20 °C1023.90 hPa73.00 %10.40 °C 
04:45:0015.40 °C1023.70 hPa72.00 %10.40 °C 
04:30:0015.80 °C1023.70 hPa71.00 %10.60 °C 
04:15:0015.90 °C1023.50 hPa71.00 %10.70 °C 
04:00:0015.80 °C1023.50 hPa71.00 %4.32 km/hSO15.80 °C10.60 °C 
03:45:0015.80 °C1023.70 hPa71.00 %10.60 °C 
03:30:0015.90 °C1023.60 hPa71.00 %10.70 °C 
03:15:0015.80 °C1023.70 hPa70.00 %7.20 km/hOSO15.90 °C10.30 °C 
03:00:0015.90 °C1023.80 hPa70.00 %10.40 °C 
02:45:0015.90 °C1023.70 hPa70.00 %10.40 °C 
02:30:0015.80 °C1023.80 hPa71.00 %10.60 °C 
02:15:0015.40 °C1023.80 hPa72.00 %10.40 °C 
02:00:0015.20 °C1023.90 hPa72.00 %10.20 °C 
01:45:0014.80 °C1023.90 hPa72.00 %9.80 °C 
01:30:0015.20 °C1023.80 hPa71.00 %10.00 °C 
01:15:0015.60 °C1023.80 hPa70.00 %10.20 °C 
01:00:0015.60 °C1023.70 hPa70.00 %10.20 °C 
00:45:0015.60 °C1024.00 hPa70.00 %10.20 °C 
00:30:0015.60 °C1024.00 hPa70.00 %10.20 °C 
00:15:0015.90 °C1023.90 hPa70.00 %10.40 °C 
00:00:0015.90 °C1023.80 hPa70.00 %10.40 °C 

Permanenter Link zu dieser Seite: Wetter im Erzgebirge am 03.07.2015
Performance-Info: Die Erstellung der Seite / Statistik(en) / Tabelle(n) erforderte 5 Datenbankserver-Abfrage(n) und dauerte 122 Millisekunden. (Dieser Messwert ist von der Gesamt-Auslastung des Servers abhängig.)
Erzgebirge - Wetter | Erzgebirge - Wetter (Mobilgeräte) | Komplette Klimadatenbank